sensor_id;sensor_type;location;lat;lon;timestamp;temperature;humidity
24645;DHT22;12780;45.502;9.146;2022-12-08T00:00:11;6.10;99.90
24645;DHT22;12780;45.502;9.146;2022-12-08T00:02:36;6.10;99.90
24645;DHT22;12780;45.502;9.146;2022-12-08T00:05:02;6.00;99.90
24645;DHT22;12780;45.502;9.146;2022-12-08T00:07:46;6.00;99.90
24645;DHT22;12780;45.502;9.146;2022-12-08T00:10:30;5.80;99.90
24645;DHT22;12780;45.502;9.146;2022-12-08T00:12:55;5.80;99.90
24645;DHT22;12780;45.502;9.146;2022-12-08T00:15:21;5.80;99.90
24645;DHT22;12780;45.502;9.146;2022-12-08T00:17:46;5.80;99.90
24645;DHT22;12780;45.502;9.146;2022-12-08T00:20:12;5.80;99.90
24645;DHT22;12780;45.502;9.146;2022-12-08T00:22:38;5.90;99.90
24645;DHT22;12780;45.502;9.146;2022-12-08T00:25:03;5.90;99.90
24645;DHT22;12780;45.502;9.146;2022-12-08T00:27:29;6.00;99.90
24645;DHT22;12780;45.502;9.146;2022-12-08T00:29:55;6.00;99.90
24645;DHT22;12780;45.502;9.146;2022-12-08T00:32:20;6.10;99.90
24645;DHT22;12780;45.502;9.146;2022-12-08T00:34:46;6.10;99.90
24645;DHT22;12780;45.502;9.146;2022-12-08T00:37:11;6.10;99.90
24645;DHT22;12780;45.502;9.146;2022-12-08T00:39:37;6.10;99.90
24645;DHT22;12780;45.502;9.146;2022-12-08T00:42:02;6.20;99.90
24645;DHT22;12780;45.502;9.146;2022-12-08T00:44:38;6.20;99.90
24645;DHT22;12780;45.502;9.146;2022-12-08T00:47:04;6.30;99.90
24645;DHT22;12780;45.502;9.146;2022-12-08T00:49:29;6.30;99.90
24645;DHT22;12780;45.502;9.146;2022-12-08T00:51:55;6.30;99.90
24645;DHT22;12780;45.502;9.146;2022-12-08T00:54:21;6.30;99.90
24645;DHT22;12780;45.502;9.146;2022-12-08T00:56:47;6.30;99.90
24645;DHT22;12780;45.502;9.146;2022-12-08T00:59:13;6.40;99.90
24645;DHT22;12780;45.502;9.146;2022-12-08T01:01:39;6.40;99.90
24645;DHT22;12780;45.502;9.146;2022-12-08T01:04:06;6.40;99.90
24645;DHT22;12780;45.502;9.146;2022-12-08T01:06:33;6.40;99.90
24645;DHT22;12780;45.502;9.146;2022-12-08T01:09:00;6.40;99.90
24645;DHT22;12780;45.502;9.146;2022-12-08T01:11:26;6.40;99.90
24645;DHT22;12780;45.502;9.146;2022-12-08T01:13:53;6.40;99.90
24645;DHT22;12780;45.502;9.146;2022-12-08T01:16:27;6.50;99.90
24645;DHT22;12780;45.502;9.146;2022-12-08T01:18:53;6.50;99.90
24645;DHT22;12780;45.502;9.146;2022-12-08T01:21:19;6.40;99.90
24645;DHT22;12780;45.502;9.146;2022-12-08T01:23:45;6.40;99.90
24645;DHT22;12780;45.502;9.146;2022-12-08T01:26:13;6.40;99.90
24645;DHT22;12780;45.502;9.146;2022-12-08T01:28:39;6.40;99.90
24645;DHT22;12780;45.502;9.146;2022-12-08T01:31:10;6.40;99.90
24645;DHT22;12780;45.502;9.146;2022-12-08T01:33:36;6.40;99.90
24645;DHT22;12780;45.502;9.146;2022-12-08T01:36:03;6.50;99.90
24645;DHT22;12780;45.502;9.146;2022-12-08T01:38:30;6.50;99.90
24645;DHT22;12780;45.502;9.146;2022-12-08T01:40:56;6.50;99.90
24645;DHT22;12780;45.502;9.146;2022-12-08T01:43:22;6.50;99.90
24645;DHT22;12780;45.502;9.146;2022-12-08T01:45:47;6.60;99.90
24645;DHT22;12780;45.502;9.146;2022-12-08T01:48:25;6.50;99.90
24645;DHT22;12780;45.502;9.146;2022-12-08T01:50:53;6.70;99.90
24645;DHT22;12780;45.502;9.146;2022-12-08T01:53:23;6.60;99.90
24645;DHT22;12780;45.502;9.146;2022-12-08T01:55:55;6.60;99.90
24645;DHT22;12780;45.502;9.146;2022-12-08T01:58:27;6.60;99.90
24645;DHT22;12780;45.502;9.146;2022-12-08T02:00:56;6.60;99.90
24645;DHT22;12780;45.502;9.146;2022-12-08T02:03:34;6.60;99.90
24645;DHT22;12780;45.502;9.146;2022-12-08T02:06:02;6.60;99.90
24645;DHT22;12780;45.502;9.146;2022-12-08T02:08:28;6.70;99.90
24645;DHT22;12780;45.502;9.146;2022-12-08T02:10:55;6.70;99.90
24645;DHT22;12780;45.502;9.146;2022-12-08T02:13:21;6.70;99.90
24645;DHT22;12780;45.502;9.146;2022-12-08T02:16:02;6.50;99.90
24645;DHT22;12780;45.502;9.146;2022-12-08T02:21:14;6.70;99.90
24645;DHT22;12780;45.502;9.146;2022-12-08T02:26:22;6.70;99.90
24645;DHT22;12780;45.502;9.146;2022-12-08T02:35:20;6.70;99.90
24645;DHT22;12780;45.502;9.146;2022-12-08T02:37:56;6.70;99.90
24645;DHT22;12780;45.502;9.146;2022-12-08T02:40:36;6.70;99.90
24645;DHT22;12780;45.502;9.146;2022-12-08T02:43:13;6.60;99.90
24645;DHT22;12780;45.502;9.146;2022-12-08T02:45:49;6.60;99.90
24645;DHT22;12780;45.502;9.146;2022-12-08T02:48:16;6.70;99.90
24645;DHT22;12780;45.502;9.146;2022-12-08T02:50:42;6.60;99.90
24645;DHT22;12780;45.502;9.146;2022-12-08T02:53:07;6.60;99.90
24645;DHT22;12780;45.502;9.146;2022-12-08T03:09:32;6.60;99.90
24645;DHT22;12780;45.502;9.146;2022-12-08T03:12:27;6.60;99.90
24645;DHT22;12780;45.502;9.146;2022-12-08T03:14:58;6.50;99.90
24645;DHT22;12780;45.502;9.146;2022-12-08T03:17:27;6.40;99.90
24645;DHT22;12780;45.502;9.146;2022-12-08T03:19:57;6.30;99.90
24645;DHT22;12780;45.502;9.146;2022-12-08T03:22:24;6.40;99.90
24645;DHT22;12780;45.502;9.146;2022-12-08T03:24:51;6.40;99.90
24645;DHT22;12780;45.502;9.146;2022-12-08T03:27:26;6.40;99.90
24645;DHT22;12780;45.502;9.146;2022-12-08T03:29:54;6.50;99.90
24645;DHT22;12780;45.502;9.146;2022-12-08T03:35:07;6.50;99.90
24645;DHT22;12780;45.502;9.146;2022-12-08T03:37:34;6.50;99.90
24645;DHT22;12780;45.502;9.146;2022-12-08T03:40:01;6.40;99.90
24645;DHT22;12780;45.502;9.146;2022-12-08T03:42:26;6.40;99.90
24645;DHT22;12780;45.502;9.146;2022-12-08T03:44:52;6.50;99.90
24645;DHT22;12780;45.502;9.146;2022-12-08T03:47:17;6.50;99.90
24645;DHT22;12780;45.502;9.146;2022-12-08T03:49:43;6.50;99.90
24645;DHT22;12780;45.502;9.146;2022-12-08T03:52:08;6.60;99.90
24645;DHT22;12780;45.502;9.146;2022-12-08T03:54:34;6.60;99.90
24645;DHT22;12780;45.502;9.146;2022-12-08T03:56:59;6.60;99.90
24645;DHT22;12780;45.502;9.146;2022-12-08T03:59:25;6.60;99.90
24645;DHT22;12780;45.502;9.146;2022-12-08T04:01:50;6.60;99.90
24645;DHT22;12780;45.502;9.146;2022-12-08T04:04:16;6.60;99.90
24645;DHT22;12780;45.502;9.146;2022-12-08T04:06:42;6.60;99.90
24645;DHT22;12780;45.502;9.146;2022-12-08T04:09:07;6.60;99.90
24645;DHT22;12780;45.502;9.146;2022-12-08T04:11:33;6.60;99.90
24645;DHT22;12780;45.502;9.146;2022-12-08T04:13:58;6.60;99.90
24645;DHT22;12780;45.502;9.146;2022-12-08T04:16:24;6.60;99.90
24645;DHT22;12780;45.502;9.146;2022-12-08T04:18:50;6.60;99.90
24645;DHT22;12780;45.502;9.146;2022-12-08T04:21:16;6.50;99.90
24645;DHT22;12780;45.502;9.146;2022-12-08T04:23:42;6.60;99.90
24645;DHT22;12780;45.502;9.146;2022-12-08T04:26:09;6.60;99.90
24645;DHT22;12780;45.502;9.146;2022-12-08T04:28:34;6.70;99.90
24645;DHT22;12780;45.502;9.146;2022-12-08T04:31:00;6.70;99.90
24645;DHT22;12780;45.502;9.146;2022-12-08T04:33:26;6.70;99.90
24645;DHT22;12780;45.502;9.146;2022-12-08T04:35:51;6.60;99.90
24645;DHT22;12780;45.502;9.146;2022-12-08T04:38:17;6.60;99.90
24645;DHT22;12780;45.502;9.146;2022-12-08T04:40:43;6.60;99.90
24645;DHT22;12780;45.502;9.146;2022-12-08T04:43:08;6.50;99.90
24645;DHT22;12780;45.502;9.146;2022-12-08T04:45:34;6.60;99.90
24645;DHT22;12780;45.502;9.146;2022-12-08T04:48:00;6.50;99.90
24645;DHT22;12780;45.502;9.146;2022-12-08T04:50:27;6.60;99.90
24645;DHT22;12780;45.502;9.146;2022-12-08T04:52:52;6.60;99.90
24645;DHT22;12780;45.502;9.146;2022-12-08T04:55:18;6.60;99.90
24645;DHT22;12780;45.502;9.146;2022-12-08T04:57:44;6.60;99.90
24645;DHT22;12780;45.502;9.146;2022-12-08T05:00:10;6.60;99.90
24645;DHT22;12780;45.502;9.146;2022-12-08T05:02:36;6.60;99.90
24645;DHT22;12780;45.502;9.146;2022-12-08T05:05:03;6.60;99.90
24645;DHT22;12780;45.502;9.146;2022-12-08T05:07:28;6.60;99.90
24645;DHT22;12780;45.502;9.146;2022-12-08T05:09:54;6.60;99.90
24645;DHT22;12780;45.502;9.146;2022-12-08T05:12:19;6.60;99.90
24645;DHT22;12780;45.502;9.146;2022-12-08T05:14:46;6.60;99.90
24645;DHT22;12780;45.502;9.146;2022-12-08T05:17:13;6.60;99.90
24645;DHT22;12780;45.502;9.146;2022-12-08T05:19:38;6.60;99.90
24645;DHT22;12780;45.502;9.146;2022-12-08T05:22:04;6.60;99.90
24645;DHT22;12780;45.502;9.146;2022-12-08T05:24:29;6.70;99.90
24645;DHT22;12780;45.502;9.146;2022-12-08T05:26:55;6.60;99.90
24645;DHT22;12780;45.502;9.146;2022-12-08T05:29:20;6.60;99.90
24645;DHT22;12780;45.502;9.146;2022-12-08T05:31:46;6.50;99.90
24645;DHT22;12780;45.502;9.146;2022-12-08T05:34:12;6.60;99.90
24645;DHT22;12780;45.502;9.146;2022-12-08T05:36:37;6.60;99.90
24645;DHT22;12780;45.502;9.146;2022-12-08T05:39:03;6.60;99.90
24645;DHT22;12780;45.502;9.146;2022-12-08T05:41:28;6.60;99.90
24645;DHT22;12780;45.502;9.146;2022-12-08T05:43:54;6.50;99.90
24645;DHT22;12780;45.502;9.146;2022-12-08T05:46:20;6.60;99.90
24645;DHT22;12780;45.502;9.146;2022-12-08T05:48:45;6.60;99.90
24645;DHT22;12780;45.502;9.146;2022-12-08T05:51:20;6.60;99.90
24645;DHT22;12780;45.502;9.146;2022-12-08T05:53:47;6.60;99.90
24645;DHT22;12780;45.502;9.146;2022-12-08T05:56:13;6.60;99.90
24645;DHT22;12780;45.502;9.146;2022-12-08T05:58:38;6.60;99.90
24645;DHT22;12780;45.502;9.146;2022-12-08T06:01:04;6.50;99.90
24645;DHT22;12780;45.502;9.146;2022-12-08T06:03:30;6.50;99.90
24645;DHT22;12780;45.502;9.146;2022-12-08T06:05:56;6.50;99.90
24645;DHT22;12780;45.502;9.146;2022-12-08T06:08:22;6.60;99.90
24645;DHT22;12780;45.502;9.146;2022-12-08T06:10:47;6.50;99.90
24645;DHT22;12780;45.502;9.146;2022-12-08T06:13:13;6.50;99.90
24645;DHT22;12780;45.502;9.146;2022-12-08T06:15:40;6.50;99.90
24645;DHT22;12780;45.502;9.146;2022-12-08T06:18:06;6.50;99.90
24645;DHT22;12780;45.502;9.146;2022-12-08T06:20:32;6.40;99.90
24645;DHT22;12780;45.502;9.146;2022-12-08T06:22:58;6.30;99.90
24645;DHT22;12780;45.502;9.146;2022-12-08T06:25:24;6.20;99.90
24645;DHT22;12780;45.502;9.146;2022-12-08T06:27:50;6.30;99.90
24645;DHT22;12780;45.502;9.146;2022-12-08T06:30:16;6.30;99.90
24645;DHT22;12780;45.502;9.146;2022-12-08T06:32:42;6.30;99.90
24645;DHT22;12780;45.502;9.146;2022-12-08T06:35:08;6.30;99.90
24645;DHT22;12780;45.502;9.146;2022-12-08T06:37:34;6.40;99.90
24645;DHT22;12780;45.502;9.146;2022-12-08T06:39:59;6.40;99.90
24645;DHT22;12780;45.502;9.146;2022-12-08T06:42:25;6.40;99.90
24645;DHT22;12780;45.502;9.146;2022-12-08T06:45:10;6.50;99.90
24645;DHT22;12780;45.502;9.146;2022-12-08T06:47:36;6.40;99.90
24645;DHT22;12780;45.502;9.146;2022-12-08T06:50:02;6.40;99.90
24645;DHT22;12780;45.502;9.146;2022-12-08T06:52:27;6.50;99.90
24645;DHT22;12780;45.502;9.146;2022-12-08T06:54:53;6.50;99.90
24645;DHT22;12780;45.502;9.146;2022-12-08T06:57:18;6.30;99.90
24645;DHT22;12780;45.502;9.146;2022-12-08T06:59:44;6.30;99.90
24645;DHT22;12780;45.502;9.146;2022-12-08T07:02:10;6.30;99.90
24645;DHT22;12780;45.502;9.146;2022-12-08T07:04:36;6.50;99.90
24645;DHT22;12780;45.502;9.146;2022-12-08T07:07:01;6.30;99.90
24645;DHT22;12780;45.502;9.146;2022-12-08T07:09:27;6.30;99.90
24645;DHT22;12780;45.502;9.146;2022-12-08T07:11:53;6.40;99.90
24645;DHT22;12780;45.502;9.146;2022-12-08T07:14:19;6.40;99.90
24645;DHT22;12780;45.502;9.146;2022-12-08T07:16:49;6.40;99.90
24645;DHT22;12780;45.502;9.146;2022-12-08T07:19:15;6.30;99.90
24645;DHT22;12780;45.502;9.146;2022-12-08T07:21:41;6.40;99.90
24645;DHT22;12780;45.502;9.146;2022-12-08T07:24:06;6.40;99.90
24645;DHT22;12780;45.502;9.146;2022-12-08T07:26:32;6.50;99.90
24645;DHT22;12780;45.502;9.146;2022-12-08T07:28:58;6.50;99.90
24645;DHT22;12780;45.502;9.146;2022-12-08T07:31:25;6.50;99.90
24645;DHT22;12780;45.502;9.146;2022-12-08T07:33:52;6.60;99.90
24645;DHT22;12780;45.502;9.146;2022-12-08T07:36:18;6.60;99.90
24645;DHT22;12780;45.502;9.146;2022-12-08T07:38:44;6.60;99.90
24645;DHT22;12780;45.502;9.146;2022-12-08T07:41:18;6.60;99.90
24645;DHT22;12780;45.502;9.146;2022-12-08T07:43:44;6.60;99.90
24645;DHT22;12780;45.502;9.146;2022-12-08T07:46:14;6.60;99.90
24645;DHT22;12780;45.502;9.146;2022-12-08T07:48:41;6.60;99.90
24645;DHT22;12780;45.502;9.146;2022-12-08T07:51:07;6.70;99.90
24645;DHT22;12780;45.502;9.146;2022-12-08T07:53:32;6.70;99.90
24645;DHT22;12780;45.502;9.146;2022-12-08T07:55:58;6.70;99.90
24645;DHT22;12780;45.502;9.146;2022-12-08T07:58:24;6.70;99.90
24645;DHT22;12780;45.502;9.146;2022-12-08T08:00:50;6.70;99.90
24645;DHT22;12780;45.502;9.146;2022-12-08T08:03:16;6.70;99.90
24645;DHT22;12780;45.502;9.146;2022-12-08T08:05:42;6.70;99.90
24645;DHT22;12780;45.502;9.146;2022-12-08T08:08:09;6.70;99.90
24645;DHT22;12780;45.502;9.146;2022-12-08T08:10:35;6.70;99.90
24645;DHT22;12780;45.502;9.146;2022-12-08T08:13:00;6.80;99.90
24645;DHT22;12780;45.502;9.146;2022-12-08T08:15:26;6.80;99.90
24645;DHT22;12780;45.502;9.146;2022-12-08T08:17:52;6.80;99.90
24645;DHT22;12780;45.502;9.146;2022-12-08T08:20:19;6.80;99.90
24645;DHT22;12780;45.502;9.146;2022-12-08T08:22:48;6.80;99.90
24645;DHT22;12780;45.502;9.146;2022-12-08T08:25:15;6.90;99.90
24645;DHT22;12780;45.502;9.146;2022-12-08T08:27:41;6.90;99.90
24645;DHT22;12780;45.502;9.146;2022-12-08T08:30:09;6.90;99.90
24645;DHT22;12780;45.502;9.146;2022-12-08T08:32:34;6.90;99.90
24645;DHT22;12780;45.502;9.146;2022-12-08T08:35:01;6.90;99.90
24645;DHT22;12780;45.502;9.146;2022-12-08T08:37:26;6.90;99.90
24645;DHT22;12780;45.502;9.146;2022-12-08T08:39:52;6.90;99.90
24645;DHT22;12780;45.502;9.146;2022-12-08T08:42:18;7.10;99.90
24645;DHT22;12780;45.502;9.146;2022-12-08T08:44:44;7.00;99.90
24645;DHT22;12780;45.502;9.146;2022-12-08T08:47:10;7.00;99.90
24645;DHT22;12780;45.502;9.146;2022-12-08T08:49:36;7.00;99.90
24645;DHT22;12780;45.502;9.146;2022-12-08T08:52:03;7.10;99.90
24645;DHT22;12780;45.502;9.146;2022-12-08T08:54:29;7.10;99.90
24645;DHT22;12780;45.502;9.146;2022-12-08T08:56:56;7.20;99.90
24645;DHT22;12780;45.502;9.146;2022-12-08T08:59:23;7.10;99.90
24645;DHT22;12780;45.502;9.146;2022-12-08T09:01:48;7.20;99.90
24645;DHT22;12780;45.502;9.146;2022-12-08T09:04:14;7.20;99.90
24645;DHT22;12780;45.502;9.146;2022-12-08T09:06:40;7.30;99.90
24645;DHT22;12780;45.502;9.146;2022-12-08T09:09:07;7.30;99.90
24645;DHT22;12780;45.502;9.146;2022-12-08T09:11:33;7.40;99.90
24645;DHT22;12780;45.502;9.146;2022-12-08T09:13:58;7.40;99.90
24645;DHT22;12780;45.502;9.146;2022-12-08T09:16:24;7.40;99.90
24645;DHT22;12780;45.502;9.146;2022-12-08T09:18:50;7.40;99.90
24645;DHT22;12780;45.502;9.146;2022-12-08T09:21:19;7.50;99.90
24645;DHT22;12780;45.502;9.146;2022-12-08T09:23:57;7.60;99.90
24645;DHT22;12780;45.502;9.146;2022-12-08T09:26:22;7.70;99.90
24645;DHT22;12780;45.502;9.146;2022-12-08T09:28:52;7.60;99.90
24645;DHT22;12780;45.502;9.146;2022-12-08T09:31:19;7.60;99.90
24645;DHT22;12780;45.502;9.146;2022-12-08T09:33:45;7.50;99.90
24645;DHT22;12780;45.502;9.146;2022-12-08T09:36:12;7.50;99.90
24645;DHT22;12780;45.502;9.146;2022-12-08T09:38:39;7.50;99.90
24645;DHT22;12780;45.502;9.146;2022-12-08T09:41:27;7.50;99.90
24645;DHT22;12780;45.502;9.146;2022-12-08T09:44:12;7.60;99.90
24645;DHT22;12780;45.502;9.146;2022-12-08T09:46:40;7.60;99.90
24645;DHT22;12780;45.502;9.146;2022-12-08T09:49:12;7.70;99.90
24645;DHT22;12780;45.502;9.146;2022-12-08T09:51:39;7.70;99.90
24645;DHT22;12780;45.502;9.146;2022-12-08T09:54:10;7.70;99.90
24645;DHT22;12780;45.502;9.146;2022-12-08T09:56:37;7.80;99.90
24645;DHT22;12780;45.502;9.146;2022-12-08T10:01:47;7.80;99.90
24645;DHT22;12780;45.502;9.146;2022-12-08T10:04:29;7.70;99.90
24645;DHT22;12780;45.502;9.146;2022-12-08T10:09:57;7.80;99.90
24645;DHT22;12780;45.502;9.146;2022-12-08T10:12:36;7.80;99.90
24645;DHT22;12780;45.502;9.146;2022-12-08T10:17:58;7.90;99.90
24645;DHT22;12780;45.502;9.146;2022-12-08T10:20:34;8.00;99.90
24645;DHT22;12780;45.502;9.146;2022-12-08T10:23:28;8.00;99.90
24645;DHT22;12780;45.502;9.146;2022-12-08T10:26:05;8.10;99.90
24645;DHT22;12780;45.502;9.146;2022-12-08T10:28:33;8.20;99.90
24645;DHT22;12780;45.502;9.146;2022-12-08T10:30:59;8.20;99.90
24645;DHT22;12780;45.502;9.146;2022-12-08T10:33:24;8.20;99.90
24645;DHT22;12780;45.502;9.146;2022-12-08T10:35:52;8.30;99.90
24645;DHT22;12780;45.502;9.146;2022-12-08T10:38:26;8.10;99.90
24645;DHT22;12780;45.502;9.146;2022-12-08T10:41:03;8.20;99.90
24645;DHT22;12780;45.502;9.146;2022-12-08T10:43:30;8.20;99.90
24645;DHT22;12780;45.502;9.146;2022-12-08T10:46:10;8.20;99.90
24645;DHT22;12780;45.502;9.146;2022-12-08T10:48:36;8.20;99.90
24645;DHT22;12780;45.502;9.146;2022-12-08T10:51:25;8.30;99.90
24645;DHT22;12780;45.502;9.146;2022-12-08T10:53:52;8.50;99.90
24645;DHT22;12780;45.502;9.146;2022-12-08T10:56:17;8.50;99.90
24645;DHT22;12780;45.502;9.146;2022-12-08T10:58:45;8.50;99.90
24645;DHT22;12780;45.502;9.146;2022-12-08T11:01:20;8.50;99.90
24645;DHT22;12780;45.502;9.146;2022-12-08T11:03:50;8.50;99.90
24645;DHT22;12780;45.502;9.146;2022-12-08T11:06:19;8.50;99.90
24645;DHT22;12780;45.502;9.146;2022-12-08T11:08:48;8.60;99.90
24645;DHT22;12780;45.502;9.146;2022-12-08T11:11:15;8.60;99.90
24645;DHT22;12780;45.502;9.146;2022-12-08T11:13:41;8.70;99.90
24645;DHT22;12780;45.502;9.146;2022-12-08T11:16:09;8.70;99.90
24645;DHT22;12780;45.502;9.146;2022-12-08T11:18:44;8.70;99.90
24645;DHT22;12780;45.502;9.146;2022-12-08T11:21:15;8.60;99.90
24645;DHT22;12780;45.502;9.146;2022-12-08T11:23:45;8.60;99.90
24645;DHT22;12780;45.502;9.146;2022-12-08T11:26:28;8.70;99.90
24645;DHT22;12780;45.502;9.146;2022-12-08T11:28:56;8.70;99.90
24645;DHT22;12780;45.502;9.146;2022-12-08T11:31:29;8.70;99.90
24645;DHT22;12780;45.502;9.146;2022-12-08T11:33:56;8.70;99.90
24645;DHT22;12780;45.502;9.146;2022-12-08T11:36:25;8.60;99.90
24645;DHT22;12780;45.502;9.146;2022-12-08T11:38:56;8.50;99.90
24645;DHT22;12780;45.502;9.146;2022-12-08T11:41:26;8.60;99.90
24645;DHT22;12780;45.502;9.146;2022-12-08T11:46:47;8.70;99.90
24645;DHT22;12780;45.502;9.146;2022-12-08T11:49:15;8.80;99.90
24645;DHT22;12780;45.502;9.146;2022-12-08T11:54:46;9.00;99.90
24645;DHT22;12780;45.502;9.146;2022-12-08T11:57:13;9.10;99.90
24645;DHT22;12780;45.502;9.146;2022-12-08T11:59:49;9.40;99.90
24645;DHT22;12780;45.502;9.146;2022-12-08T12:02:18;9.40;99.90
24645;DHT22;12780;45.502;9.146;2022-12-08T12:13:07;9.80;99.90
24645;DHT22;12780;45.502;9.146;2022-12-08T12:18:24;9.60;99.90
24645;DHT22;12780;45.502;9.146;2022-12-08T12:23:20;9.30;99.90
24645;DHT22;12780;45.502;9.146;2022-12-08T12:25:54;9.20;99.90
24645;DHT22;12780;45.502;9.146;2022-12-08T12:28:23;9.00;99.90
24645;DHT22;12780;45.502;9.146;2022-12-08T12:30:56;8.90;99.90
24645;DHT22;12780;45.502;9.146;2022-12-08T12:33:23;8.80;99.90
24645;DHT22;12780;45.502;9.146;2022-12-08T12:35:49;8.80;99.90
24645;DHT22;12780;45.502;9.146;2022-12-08T12:38:20;8.90;99.90
24645;DHT22;12780;45.502;9.146;2022-12-08T12:41:07;9.00;99.90
24645;DHT22;12780;45.502;9.146;2022-12-08T12:43:35;9.00;99.90
24645;DHT22;12780;45.502;9.146;2022-12-08T12:46:37;9.00;99.90
24645;DHT22;12780;45.502;9.146;2022-12-08T12:54:44;9.10;99.90
24645;DHT22;12780;45.502;9.146;2022-12-08T12:57:37;9.00;99.90
24645;DHT22;12780;45.502;9.146;2022-12-08T13:07:30;9.20;99.90
24645;DHT22;12780;45.502;9.146;2022-12-08T13:10:03;9.30;99.90
24645;DHT22;12780;45.502;9.146;2022-12-08T13:12:35;9.30;99.90
24645;DHT22;12780;45.502;9.146;2022-12-08T13:15:04;9.40;99.90
24645;DHT22;12780;45.502;9.146;2022-12-08T13:17:32;9.50;99.90
24645;DHT22;12780;45.502;9.146;2022-12-08T13:20:03;9.50;99.90
24645;DHT22;12780;45.502;9.146;2022-12-08T13:22:56;9.60;99.90
24645;DHT22;12780;45.502;9.146;2022-12-08T13:33:22;9.50;99.90
24645;DHT22;12780;45.502;9.146;2022-12-08T13:36:15;9.40;99.90
24645;DHT22;12780;45.502;9.146;2022-12-08T13:38:43;9.40;99.90
24645;DHT22;12780;45.502;9.146;2022-12-08T13:41:16;9.40;99.90
24645;DHT22;12780;45.502;9.146;2022-12-08T13:46:14;9.30;99.90
24645;DHT22;12780;45.502;9.146;2022-12-08T13:48:49;9.40;99.90
24645;DHT22;12780;45.502;9.146;2022-12-08T13:51:26;9.30;99.90
24645;DHT22;12780;45.502;9.146;2022-12-08T13:56:42;9.30;99.90
24645;DHT22;12780;45.502;9.146;2022-12-08T13:59:29;9.30;99.90
24645;DHT22;12780;45.502;9.146;2022-12-08T14:01:58;9.20;99.90
24645;DHT22;12780;45.502;9.146;2022-12-08T14:04:26;9.10;99.90
24645;DHT22;12780;45.502;9.146;2022-12-08T14:07:00;9.10;99.90
24645;DHT22;12780;45.502;9.146;2022-12-08T14:09:31;9.10;99.90
24645;DHT22;12780;45.502;9.146;2022-12-08T14:12:20;9.20;99.90
24645;DHT22;12780;45.502;9.146;2022-12-08T14:15:09;9.20;99.90
24645;DHT22;12780;45.502;9.146;2022-12-08T14:17:38;9.20;99.90
24645;DHT22;12780;45.502;9.146;2022-12-08T14:20:23;9.10;99.90
24645;DHT22;12780;45.502;9.146;2022-12-08T14:22:50;9.10;99.90
24645;DHT22;12780;45.502;9.146;2022-12-08T14:25:17;9.10;99.90
24645;DHT22;12780;45.502;9.146;2022-12-08T14:27:43;9.10;99.90
24645;DHT22;12780;45.502;9.146;2022-12-08T14:32:48;9.20;99.90
24645;DHT22;12780;45.502;9.146;2022-12-08T14:38:13;9.20;99.90
24645;DHT22;12780;45.502;9.146;2022-12-08T14:53:46;8.90;99.90
24645;DHT22;12780;45.502;9.146;2022-12-08T14:56:22;8.90;99.90
24645;DHT22;12780;45.502;9.146;2022-12-08T14:59:00;8.80;99.90
24645;DHT22;12780;45.502;9.146;2022-12-08T15:01:28;8.80;99.90
24645;DHT22;12780;45.502;9.146;2022-12-08T15:04:45;8.80;99.90
24645;DHT22;12780;45.502;9.146;2022-12-08T15:06:59;8.80;99.90
24645;DHT22;12780;45.502;9.146;2022-12-08T15:09:31;8.80;99.90
24645;DHT22;12780;45.502;9.146;2022-12-08T15:12:04;8.70;99.90
24645;DHT22;12780;45.502;9.146;2022-12-08T15:14:35;8.80;99.90
24645;DHT22;12780;45.502;9.146;2022-12-08T15:17:02;8.80;99.90
24645;DHT22;12780;45.502;9.146;2022-12-08T15:21:56;8.80;99.90
24645;DHT22;12780;45.502;9.146;2022-12-08T15:24:28;8.80;99.90
24645;DHT22;12780;45.502;9.146;2022-12-08T15:26:55;8.80;99.90
24645;DHT22;12780;45.502;9.146;2022-12-08T15:29:26;8.80;99.90
24645;DHT22;12780;45.502;9.146;2022-12-08T15:31:55;8.70;99.90
24645;DHT22;12780;45.502;9.146;2022-12-08T15:34:21;8.70;99.90
24645;DHT22;12780;45.502;9.146;2022-12-08T15:36:49;8.60;99.90
24645;DHT22;12780;45.502;9.146;2022-12-08T15:39:36;8.50;99.90
24645;DHT22;12780;45.502;9.146;2022-12-08T15:42:03;8.60;99.90
24645;DHT22;12780;45.502;9.146;2022-12-08T15:44:30;8.60;99.90
24645;DHT22;12780;45.502;9.146;2022-12-08T15:46:58;8.50;99.90
24645;DHT22;12780;45.502;9.146;2022-12-08T15:49:24;8.40;99.90
24645;DHT22;12780;45.502;9.146;2022-12-08T15:51:51;8.40;99.90
24645;DHT22;12780;45.502;9.146;2022-12-08T15:54:16;8.30;99.90
24645;DHT22;12780;45.502;9.146;2022-12-08T15:56:54;8.30;99.90
24645;DHT22;12780;45.502;9.146;2022-12-08T15:59:22;8.20;99.90
24645;DHT22;12780;45.502;9.146;2022-12-08T16:01:49;8.10;99.90
24645;DHT22;12780;45.502;9.146;2022-12-08T16:04:17;8.20;99.90
24645;DHT22;12780;45.502;9.146;2022-12-08T16:06:51;8.10;99.90
24645;DHT22;12780;45.502;9.146;2022-12-08T16:09:36;8.00;99.90
24645;DHT22;12780;45.502;9.146;2022-12-08T16:12:04;8.00;99.90
24645;DHT22;12780;45.502;9.146;2022-12-08T16:14:48;8.00;99.90
24645;DHT22;12780;45.502;9.146;2022-12-08T16:17:15;8.00;99.90
24645;DHT22;12780;45.502;9.146;2022-12-08T16:19:41;8.00;99.90
24645;DHT22;12780;45.502;9.146;2022-12-08T16:22:28;8.00;99.90
24645;DHT22;12780;45.502;9.146;2022-12-08T16:24:54;8.00;99.90
24645;DHT22;12780;45.502;9.146;2022-12-08T16:27:25;7.90;99.90
24645;DHT22;12780;45.502;9.146;2022-12-08T16:29:53;7.90;99.90
24645;DHT22;12780;45.502;9.146;2022-12-08T16:32:19;7.90;99.90
24645;DHT22;12780;45.502;9.146;2022-12-08T16:34:45;7.90;99.90
24645;DHT22;12780;45.502;9.146;2022-12-08T16:37:18;8.00;99.90
24645;DHT22;12780;45.502;9.146;2022-12-08T16:39:44;7.90;99.90
24645;DHT22;12780;45.502;9.146;2022-12-08T16:42:13;7.90;99.90
24645;DHT22;12780;45.502;9.146;2022-12-08T16:44:57;7.80;99.90
24645;DHT22;12780;45.502;9.146;2022-12-08T16:47:23;7.80;99.90
24645;DHT22;12780;45.502;9.146;2022-12-08T16:49:48;7.80;99.90
24645;DHT22;12780;45.502;9.146;2022-12-08T16:52:15;8.00;99.90
24645;DHT22;12780;45.502;9.146;2022-12-08T16:54:41;7.80;99.90
24645;DHT22;12780;45.502;9.146;2022-12-08T16:57:07;7.90;99.90
24645;DHT22;12780;45.502;9.146;2022-12-08T16:59:33;7.90;99.90
24645;DHT22;12780;45.502;9.146;2022-12-08T17:01:58;7.90;99.90
24645;DHT22;12780;45.502;9.146;2022-12-08T17:04:24;7.90;99.90
24645;DHT22;12780;45.502;9.146;2022-12-08T17:06:50;7.90;99.90
24645;DHT22;12780;45.502;9.146;2022-12-08T17:09:17;7.90;99.90
24645;DHT22;12780;45.502;9.146;2022-12-08T17:11:43;7.90;99.90
24645;DHT22;12780;45.502;9.146;2022-12-08T17:14:13;7.80;99.90
24645;DHT22;12780;45.502;9.146;2022-12-08T17:16:39;7.90;99.90
24645;DHT22;12780;45.502;9.146;2022-12-08T17:19:05;7.90;99.90
24645;DHT22;12780;45.502;9.146;2022-12-08T17:21:31;7.90;99.90
24645;DHT22;12780;45.502;9.146;2022-12-08T17:23:57;7.90;99.90
24645;DHT22;12780;45.502;9.146;2022-12-08T17:26:23;7.90;99.90
24645;DHT22;12780;45.502;9.146;2022-12-08T17:28:48;8.00;99.90
24645;DHT22;12780;45.502;9.146;2022-12-08T17:31:15;7.90;99.90
24645;DHT22;12780;45.502;9.146;2022-12-08T17:33:41;7.90;99.90
24645;DHT22;12780;45.502;9.146;2022-12-08T17:36:10;7.90;99.90
24645;DHT22;12780;45.502;9.146;2022-12-08T17:38:35;7.90;99.90